createdAt,value
2023-03-26T00:01:38.196Z,8.11
2023-03-26T00:04:07.858Z,8.03
2023-03-26T00:06:39.788Z,8.05
2023-03-26T00:09:10.637Z,7.97
2023-03-26T00:11:45.329Z,7.99
2023-03-26T00:14:14.198Z,7.95
2023-03-26T00:16:42.828Z,7.99
2023-03-26T00:19:15.674Z,8.01
2023-03-26T00:21:43.687Z,7.97
2023-03-26T00:24:16.343Z,7.99
2023-03-26T00:26:45.176Z,7.99
2023-03-26T00:29:14.053Z,7.89
2023-03-26T00:31:46.505Z,7.84
2023-03-26T00:34:18.471Z,7.78
2023-03-26T00:36:47.214Z,7.89
2023-03-26T00:39:18.020Z,7.85
2023-03-26T00:41:46.847Z,7.68
2023-03-26T00:44:14.969Z,7.74
2023-03-26T00:46:42.939Z,7.72
2023-03-26T00:49:14.863Z,7.76
2023-03-26T00:51:45.345Z,7.82
2023-03-26T00:54:12.889Z,7.70
2023-03-26T00:56:45.430Z,7.76
2023-03-26T00:59:13.745Z,7.74
2023-03-26T01:01:41.864Z,7.75
2023-03-26T01:04:39.595Z,7.80
2023-03-26T01:07:13.555Z,7.83
2023-03-26T01:09:45.175Z,7.78
2023-03-26T01:12:18.698Z,7.66
2023-03-26T01:14:55.150Z,7.55
2023-03-26T01:17:23.984Z,7.55
2023-03-26T01:20:16.466Z,7.67
2023-03-26T01:22:54.547Z,7.67
2023-03-26T01:25:26.877Z,7.70
2023-03-26T01:27:56.349Z,7.78
2023-03-26T01:30:43.020Z,7.80
2023-03-26T01:33:34.023Z,7.77
2023-03-26T01:36:12.016Z,7.68
2023-03-26T01:39:25.352Z,7.75
2023-03-26T01:41:59.810Z,7.63
2023-03-26T01:44:33.616Z,7.72
2023-03-26T01:47:01.902Z,7.74
2023-03-26T01:49:31.281Z,7.67
2023-03-26T01:51:59.145Z,7.48
2023-03-26T01:54:30.339Z,7.44
2023-03-26T01:57:28.497Z,7.54
2023-03-26T02:00:18.553Z,7.60
2023-03-26T02:03:19.606Z,7.62
2023-03-26T02:06:04.414Z,7.65
2023-03-26T02:08:41.872Z,7.63
2023-03-26T02:11:13.211Z,7.60
2023-03-26T02:13:45.116Z,7.69
2023-03-26T02:16:16.608Z,7.69
2023-03-26T02:18:51.532Z,7.51
2023-03-26T02:21:22.001Z,7.63
2023-03-26T02:23:57.859Z,7.59
2023-03-26T02:26:25.917Z,7.61
2023-03-26T02:28:59.374Z,7.61
2023-03-26T02:31:31.448Z,7.55
2023-03-26T02:33:59.165Z,7.57
2023-03-26T02:36:29.576Z,7.60
2023-03-26T02:39:00.973Z,7.64
2023-03-26T02:41:35.992Z,7.73
2023-03-26T02:44:10.383Z,7.62
2023-03-26T02:46:56.634Z,7.66
2023-03-26T02:49:50.681Z,7.67
2023-03-26T02:52:43.155Z,7.77
2023-03-26T02:55:11.405Z,7.74
2023-03-26T02:57:41.361Z,7.72
2023-03-26T03:00:11.259Z,7.75
2023-03-26T03:02:40.413Z,7.71
2023-03-26T03:05:43.359Z,7.57
2023-03-26T03:08:13.431Z,7.43
2023-03-26T03:11:08.593Z,7.35
2023-03-26T03:13:43.216Z,7.43
2023-03-26T03:16:12.573Z,7.51
2023-03-26T03:18:41.263Z,7.53
2023-03-26T03:21:09.296Z,7.50
2023-03-26T03:23:39.805Z,7.34
2023-03-26T03:26:17.123Z,7.37
2023-03-26T03:28:51.945Z,7.32
2023-03-26T03:31:21.844Z,7.35
2023-03-26T03:33:49.660Z,7.33
2023-03-26T03:36:24.003Z,7.33
2023-03-26T03:39:02.817Z,7.31
2023-03-26T03:41:33.979Z,7.31
2023-03-26T03:44:04.651Z,7.34
2023-03-26T03:46:33.366Z,7.29
2023-03-26T03:49:01.167Z,7.36
2023-03-26T03:51:36.227Z,7.37
2023-03-26T03:54:08.753Z,7.40
2023-03-26T03:56:59.077Z,7.28
2023-03-26T03:59:32.905Z,7.25
2023-03-26T04:02:03.060Z,7.27
2023-03-26T04:04:35.264Z,7.20
2023-03-26T04:07:06.139Z,7.20
2023-03-26T04:10:00.015Z,7.23
2023-03-26T04:12:32.825Z,7.26
2023-03-26T04:15:04.376Z,7.17
2023-03-26T04:17:33.283Z,7.12
2023-03-26T04:20:06.969Z,7.21
2023-03-26T04:22:35.240Z,7.23
2023-03-26T04:25:11.132Z,7.26
2023-03-26T04:27:48.910Z,7.19
2023-03-26T04:30:27.531Z,7.28
2023-03-26T04:33:18.877Z,7.33
2023-03-26T04:35:48.399Z,7.29
2023-03-26T04:38:23.161Z,7.30
2023-03-26T04:40:53.745Z,7.36
2023-03-26T04:43:50.752Z,7.36
2023-03-26T04:46:35.514Z,7.37
2023-03-26T04:49:25.876Z,7.30
2023-03-26T04:51:55.505Z,7.43
2023-03-26T04:54:44.767Z,7.53
2023-03-26T04:57:26.392Z,7.56
2023-03-26T05:00:19.676Z,7.39
2023-03-26T05:03:01.729Z,7.34
2023-03-26T05:05:30.637Z,7.25
2023-03-26T05:08:00.412Z,7.23
2023-03-26T05:10:28.260Z,7.35
2023-03-26T05:13:11.071Z,7.24
2023-03-26T05:15:45.149Z,7.36
2023-03-26T05:18:34.037Z,7.51
2023-03-26T05:21:02.920Z,7.52
2023-03-26T05:23:31.793Z,7.49
2023-03-26T05:26:17.955Z,7.38
2023-03-26T05:28:45.618Z,7.37
2023-03-26T05:31:23.829Z,7.43
2023-03-26T05:33:55.264Z,7.45
2023-03-26T05:36:26.110Z,7.43
2023-03-26T05:39:05.036Z,7.44
2023-03-26T05:41:56.307Z,7.54
2023-03-26T05:44:33.684Z,7.47
2023-03-26T05:47:04.996Z,7.33
2023-03-26T05:49:32.629Z,7.51
2023-03-26T05:52:06.181Z,7.55
2023-03-26T05:54:47.314Z,7.57
2023-03-26T05:57:35.576Z,7.54
2023-03-26T06:00:22.262Z,7.51
2023-03-26T06:02:56.675Z,7.58
2023-03-26T06:05:53.730Z,7.63
2023-03-26T06:08:36.723Z,7.65
2023-03-26T06:11:08.194Z,7.82
2023-03-26T06:13:43.768Z,7.74
2023-03-26T06:16:26.268Z,7.72
2023-03-26T06:19:10.607Z,7.75
2023-03-26T06:21:59.985Z,7.86
2023-03-26T06:24:47.826Z,7.89
2023-03-26T06:27:40.523Z,7.79
2023-03-26T06:30:31.546Z,7.84
2023-03-26T06:33:08.936Z,7.83
2023-03-26T06:35:45.565Z,7.87
2023-03-26T06:38:14.804Z,7.92
2023-03-26T06:40:45.052Z,7.98
2023-03-26T06:43:36.402Z,8.19
2023-03-26T06:46:11.190Z,8.39
2023-03-26T06:48:40.342Z,8.45
2023-03-26T06:51:26.867Z,8.62
2023-03-26T06:54:14.091Z,8.52
2023-03-26T06:56:51.078Z,8.65
2023-03-26T06:59:37.196Z,8.40
2023-03-26T07:02:28.090Z,8.41
2023-03-26T07:05:15.759Z,8.55
2023-03-26T07:08:03.030Z,8.74
2023-03-26T07:10:49.198Z,8.58
2023-03-26T07:13:31.756Z,8.55
2023-03-26T07:16:22.800Z,8.59
2023-03-26T07:19:03.100Z,8.59
2023-03-26T07:21:36.595Z,8.66
2023-03-26T07:24:12.542Z,8.73
2023-03-26T07:27:27.165Z,8.88
2023-03-26T07:30:04.493Z,8.75
2023-03-26T07:33:11.065Z,8.68
2023-03-26T07:36:08.195Z,8.59
2023-03-26T07:39:39.079Z,8.77
2023-03-26T07:42:48.009Z,8.91
2023-03-26T07:45:39.876Z,8.90
2023-03-26T07:48:40.846Z,8.87
2023-03-26T07:51:29.275Z,8.68
2023-03-26T07:54:35.492Z,8.82
2023-03-26T07:57:49.543Z,8.89
2023-03-26T08:00:56.163Z,8.79
2023-03-26T08:03:54.617Z,8.67
2023-03-26T08:06:48.877Z,8.76
2023-03-26T08:09:35.103Z,8.82
2023-03-26T08:12:27.181Z,8.87
2023-03-26T08:15:12.464Z,8.83
2023-03-26T08:18:00.189Z,8.77
2023-03-26T08:20:41.576Z,8.88
2023-03-26T08:23:32.729Z,8.91
2023-03-26T08:26:17.503Z,8.88
2023-03-26T08:29:09.986Z,8.93
2023-03-26T08:31:41.461Z,8.83
2023-03-26T08:34:13.632Z,8.73
2023-03-26T08:36:43.048Z,8.69
2023-03-26T08:39:10.755Z,8.78
2023-03-26T08:41:45.041Z,8.65
2023-03-26T08:44:51.524Z,8.60
2023-03-26T08:47:42.539Z,8.58
2023-03-26T08:50:43.799Z,8.62
2023-03-26T08:53:14.292Z,8.76
2023-03-26T08:56:13.030Z,8.80
2023-03-26T08:58:51.275Z,8.98
2023-03-26T09:01:28.303Z,9.07
2023-03-26T09:04:29.710Z,8.91
2023-03-26T09:07:31.458Z,8.87
2023-03-26T09:10:17.129Z,8.82
2023-03-26T09:13:17.372Z,8.89
2023-03-26T09:16:09.394Z,8.93
2023-03-26T09:18:53.687Z,9.03
2023-03-26T09:21:25.615Z,8.97
2023-03-26T09:24:18.079Z,9.11
2023-03-26T09:26:59.447Z,9.01
2023-03-26T09:29:41.869Z,9.05
2023-03-26T09:32:42.731Z,8.95
2023-03-26T09:35:33.277Z,8.93
2023-03-26T09:38:11.310Z,9.12
2023-03-26T09:40:53.159Z,9.14
2023-03-26T09:43:36.860Z,9.12
2023-03-26T09:46:22.612Z,9.27
2023-03-26T09:48:54.506Z,9.27
2023-03-26T09:51:53.752Z,9.18
2023-03-26T09:54:44.632Z,9.19
2023-03-26T09:57:46.979Z,9.15
2023-03-26T10:00:18.107Z,9.09
2023-03-26T10:03:11.579Z,9.20
2023-03-26T10:05:42.649Z,9.28
2023-03-26T10:08:31.638Z,9.15
2023-03-26T10:11:21.731Z,9.17
2023-03-26T10:13:55.822Z,9.24
2023-03-26T10:16:33.168Z,9.36
2023-03-26T10:19:20.378Z,9.29
2023-03-26T10:22:03.995Z,9.24
2023-03-26T10:24:44.164Z,9.28
2023-03-26T10:27:38.304Z,9.39
2023-03-26T10:30:39.072Z,9.25
2023-03-26T10:33:07.025Z,9.18
2023-03-26T10:36:08.109Z,9.15
2023-03-26T10:38:42.262Z,9.22
2023-03-26T10:41:09.791Z,9.19
2023-03-26T10:43:46.417Z,9.20
2023-03-26T10:46:34.769Z,9.20
2023-03-26T10:49:14.519Z,9.22
2023-03-26T10:51:44.796Z,9.27
2023-03-26T10:54:31.350Z,9.32
2023-03-26T10:57:01.596Z,9.52
2023-03-26T10:59:30.733Z,9.53
2023-03-26T11:02:29.192Z,9.60
2023-03-26T11:05:19.522Z,9.75
2023-03-26T11:07:47.160Z,9.93
2023-03-26T11:10:28.088Z,9.78
2023-03-26T11:13:16.158Z,9.73
2023-03-26T11:15:51.377Z,9.83
2023-03-26T11:18:26.043Z,9.90
2023-03-26T11:21:19.452Z,9.79
2023-03-26T11:24:26.651Z,9.80
2023-03-26T11:26:58.054Z,9.83
2023-03-26T11:29:49.926Z,9.85
2023-03-26T11:32:26.260Z,9.91
2023-03-26T11:35:14.897Z,9.84
2023-03-26T11:37:54.668Z,9.79
2023-03-26T11:40:46.326Z,9.69
2023-03-26T11:43:28.056Z,9.67
2023-03-26T11:45:56.584Z,9.68
2023-03-26T11:48:34.184Z,9.62
2023-03-26T11:51:09.126Z,9.60
2023-03-26T11:53:47.035Z,9.64
2023-03-26T11:56:27.112Z,9.73
2023-03-26T11:59:01.361Z,9.82
2023-03-26T12:01:50.423Z,9.92
2023-03-26T12:04:40.663Z,9.98
2023-03-26T12:07:30.433Z,10.01
2023-03-26T12:10:18.085Z,10.13
2023-03-26T12:12:54.731Z,10.09
2023-03-26T12:15:25.017Z,10.10
2023-03-26T12:17:59.415Z,9.98
2023-03-26T12:20:31.540Z,9.80
2023-03-26T12:23:02.073Z,9.83
2023-03-26T12:25:33.997Z,9.87
2023-03-26T12:28:14.126Z,9.82
2023-03-26T12:30:53.054Z,9.79
2023-03-26T12:33:27.125Z,9.86
2023-03-26T12:36:00.728Z,9.93
2023-03-26T12:38:35.893Z,9.90
2023-03-26T12:44:44.333Z,9.89
2023-03-26T12:44:46.609Z,9.75
2023-03-26T12:47:58.584Z,9.80
2023-03-26T12:50:03.909Z,9.69
2023-03-26T12:52:41.839Z,9.73
2023-03-26T12:55:35.473Z,9.56
2023-03-26T12:58:41.609Z,9.50
2023-03-26T13:01:33.245Z,9.50
2023-03-26T13:04:37.639Z,9.56
2023-03-26T13:07:23.528Z,9.66
2023-03-26T13:10:27.010Z,9.71
2023-03-26T13:12:55.823Z,9.72
2023-03-26T13:15:33.135Z,9.79
2023-03-26T13:18:46.219Z,9.82
2023-03-26T13:21:37.565Z,9.85
2023-03-26T13:24:29.270Z,9.92
2023-03-26T13:27:27.940Z,10.03
2023-03-26T13:30:14.644Z,9.98
2023-03-26T13:33:21.055Z,9.90
2023-03-26T13:36:19.098Z,9.83
2023-03-26T13:39:08.214Z,9.81
2023-03-26T13:41:51.129Z,9.83
2023-03-26T13:44:41.516Z,9.78
2023-03-26T13:47:20.631Z,9.65
2023-03-26T13:50:18.936Z,9.66
2023-03-26T13:52:59.481Z,9.69
2023-03-26T13:55:36.267Z,9.76
2023-03-26T13:58:06.942Z,9.66
2023-03-26T14:00:55.449Z,9.74
2023-03-26T14:03:29.104Z,9.67
2023-03-26T14:06:03.780Z,9.69
2023-03-26T14:08:39.611Z,9.76
2023-03-26T14:11:22.784Z,9.81
2023-03-26T14:14:04.237Z,9.82
2023-03-26T14:16:40.643Z,9.80
2023-03-26T14:19:42.208Z,9.76
2023-03-26T14:22:35.373Z,9.76
2023-03-26T14:25:40.811Z,9.66
2023-03-26T14:28:24.360Z,9.71
2023-03-26T14:31:19.593Z,9.79
2023-03-26T14:34:05.225Z,9.83
2023-03-26T14:36:59.233Z,9.80
2023-03-26T14:39:58.191Z,9.77
2023-03-26T14:43:04.337Z,9.77
2023-03-26T14:45:44.834Z,9.72
2023-03-26T14:48:34.019Z,9.78
2023-03-26T14:51:20.415Z,9.72
2023-03-26T14:53:54.723Z,9.71
2023-03-26T14:56:43.804Z,9.74
2023-03-26T14:59:45.909Z,9.76
2023-03-26T15:02:23.141Z,9.73
2023-03-26T15:05:00.172Z,9.72
2023-03-26T15:08:05.029Z,9.78
2023-03-26T15:10:43.283Z,9.71
2023-03-26T15:13:20.827Z,9.73
2023-03-26T15:16:13.733Z,9.74
2023-03-26T15:18:57.400Z,9.72
2023-03-26T15:21:40.598Z,9.69
2023-03-26T15:24:27.398Z,9.64
2023-03-26T15:27:37.347Z,9.66
2023-03-26T15:30:42.806Z,9.54
2023-03-26T15:33:46.925Z,9.64
2023-03-26T15:36:58.957Z,9.63
2023-03-26T15:40:08.238Z,9.64
2023-03-26T15:42:42.333Z,9.70
2023-03-26T15:45:42.256Z,9.66
2023-03-26T15:48:13.220Z,9.62
2023-03-26T15:51:07.898Z,9.64
2023-03-26T15:54:06.669Z,9.65
2023-03-26T15:56:58.961Z,9.55
2023-03-26T15:59:54.443Z,9.49
2023-03-26T16:02:40.286Z,9.52
2023-03-26T16:05:23.151Z,9.52
2023-03-26T16:08:02.991Z,9.55
2023-03-26T16:10:53.042Z,9.54
2023-03-26T16:13:26.696Z,9.47
2023-03-26T16:16:07.224Z,9.42
2023-03-26T16:18:41.247Z,9.28
2023-03-26T16:21:32.082Z,9.18
2023-03-26T16:24:07.449Z,9.13
2023-03-26T16:26:44.289Z,9.16
2023-03-26T16:29:26.825Z,9.17
2023-03-26T16:32:18.669Z,9.13
2023-03-26T16:35:04.935Z,9.10
2023-03-26T16:37:50.108Z,9.00
2023-03-26T16:40:24.043Z,9.06
2023-03-26T16:42:57.931Z,8.96
2023-03-26T16:45:46.468Z,9.02
2023-03-26T16:48:36.227Z,8.96
2023-03-26T16:51:30.673Z,8.95
2023-03-26T16:54:17.647Z,8.88
2023-03-26T16:57:10.511Z,8.91
2023-03-26T17:00:23.612Z,8.91
2023-03-26T17:03:35.654Z,8.91
2023-03-26T17:06:24.481Z,8.88
2023-03-26T17:09:14.195Z,8.80
2023-03-26T17:11:51.582Z,8.75
2023-03-26T17:14:51.247Z,8.74
2023-03-26T17:17:41.105Z,8.77
2023-03-26T17:20:37.005Z,8.75
2023-03-26T17:23:30.828Z,8.74
2023-03-26T17:26:09.999Z,8.80
2023-03-26T17:29:03.315Z,8.70
2023-03-26T17:31:50.983Z,8.64
2023-03-26T17:34:49.225Z,8.71
2023-03-26T17:37:17.351Z,8.66
2023-03-26T17:39:47.987Z,8.71
2023-03-26T17:42:33.031Z,8.67
2023-03-26T17:45:23.497Z,8.66
2023-03-26T17:47:58.715Z,8.69
2023-03-26T17:50:32.267Z,8.73
2023-03-26T17:53:17.815Z,8.70
2023-03-26T17:55:46.641Z,8.73
2023-03-26T17:58:48.006Z,8.67
2023-03-26T18:01:53.132Z,8.72
2023-03-26T18:04:34.062Z,8.70
2023-03-26T18:07:34.966Z,8.66
2023-03-26T18:10:22.454Z,8.72
2023-03-26T18:13:12.489Z,8.64
2023-03-26T18:16:05.833Z,8.61
2023-03-26T18:18:52.409Z,8.57
2023-03-26T18:21:39.013Z,8.64
2023-03-26T18:24:12.965Z,8.55
2023-03-26T18:26:47.179Z,8.59
2023-03-26T18:29:24.706Z,8.56
2023-03-26T18:31:58.363Z,8.57
2023-03-26T18:34:29.251Z,8.53
2023-03-26T18:37:03.031Z,8.52
2023-03-26T18:39:31.148Z,8.44
2023-03-26T18:41:58.870Z,8.58
2023-03-26T18:44:27.544Z,8.60
2023-03-26T18:46:55.680Z,8.54
2023-03-26T18:49:26.516Z,8.57
2023-03-26T18:51:57.589Z,8.60
2023-03-26T18:54:34.514Z,8.62
2023-03-26T18:57:15.511Z,8.58
2023-03-26T18:59:45.661Z,8.52
2023-03-26T19:02:14.730Z,8.51
2023-03-26T19:04:46.817Z,8.51
2023-03-26T19:07:26.677Z,8.47
2023-03-26T19:09:56.628Z,8.48
2023-03-26T19:12:32.624Z,8.41
2023-03-26T19:15:09.647Z,8.44
2023-03-26T19:17:47.526Z,8.45
2023-03-26T19:20:21.817Z,8.47
2023-03-26T19:22:51.026Z,8.37
2023-03-26T19:25:24.132Z,8.38
2023-03-26T19:27:52.580Z,8.31
2023-03-26T19:30:35.218Z,8.31
2023-03-26T19:33:14.371Z,8.33
2023-03-26T19:35:44.199Z,8.38
2023-03-26T19:38:27.513Z,8.38
2023-03-26T19:40:57.793Z,8.41
2023-03-26T19:43:27.219Z,8.41
2023-03-26T19:48:49.283Z,8.41
2023-03-26T19:51:18.382Z,8.39
2023-03-26T19:51:21.551Z,8.52
2023-03-26T19:53:54.351Z,8.54
2023-03-26T19:56:23.479Z,8.45
2023-03-26T19:58:51.359Z,8.41
2023-03-26T20:01:27.359Z,8.48
2023-03-26T20:03:59.951Z,8.51
2023-03-26T20:06:42.514Z,8.50
2023-03-26T20:09:13.126Z,8.47
2023-03-26T20:11:41.763Z,8.46
2023-03-26T20:14:15.755Z,8.42
2023-03-26T20:19:31.502Z,8.41
2023-03-26T20:21:59.198Z,8.33
2023-03-26T20:24:33.219Z,8.33
2023-03-26T20:27:00.742Z,8.36
2023-03-26T20:29:28.767Z,8.42
2023-03-26T20:31:56.422Z,8.42
2023-03-26T20:34:24.658Z,8.43
2023-03-26T20:36:55.376Z,8.42
2023-03-26T20:39:24.509Z,8.30
2023-03-26T20:41:56.483Z,8.29
2023-03-26T20:44:26.856Z,8.26
2023-03-26T20:46:56.605Z,8.26
2023-03-26T20:49:25.173Z,8.26
2023-03-26T20:51:54.313Z,8.30
2023-03-26T20:54:24.692Z,8.32
2023-03-26T20:56:54.234Z,8.29
2023-03-26T20:59:27.804Z,8.31
2023-03-26T21:01:59.568Z,8.28
2023-03-26T21:04:27.698Z,8.22
2023-03-26T21:07:06.679Z,8.26
2023-03-26T21:09:40.139Z,8.31
2023-03-26T21:12:15.517Z,8.38
2023-03-26T21:14:52.807Z,8.33
2023-03-26T21:17:23.943Z,8.29
2023-03-26T21:19:52.071Z,8.33
2023-03-26T21:22:30.360Z,8.27
2023-03-26T21:25:42.984Z,8.25
2023-03-26T21:28:41.872Z,8.17
2023-03-26T21:31:19.535Z,8.19
2023-03-26T21:33:49.464Z,8.19
2023-03-26T21:36:19.818Z,8.28
2023-03-26T21:38:47.821Z,8.26
2023-03-26T21:41:28.753Z,8.33
2023-03-26T21:43:56.446Z,8.42
2023-03-26T21:46:24.307Z,8.35
2023-03-26T21:48:55.426Z,8.34
2023-03-26T21:51:23.618Z,8.41
2023-03-26T21:53:52.136Z,8.38
2023-03-26T21:56:44.788Z,8.36
2023-03-26T21:59:21.145Z,8.40
2023-03-26T22:02:12.906Z,8.36
2023-03-26T22:04:54.312Z,8.35
2023-03-26T22:07:50.435Z,8.26
2023-03-26T22:10:18.749Z,8.27
2023-03-26T22:12:46.300Z,8.28
2023-03-26T22:15:14.229Z,8.34
2023-03-26T22:17:42.382Z,8.29
2023-03-26T22:20:19.519Z,8.27
2023-03-26T22:22:48.899Z,8.31
2023-03-26T22:25:20.894Z,8.35
2023-03-26T22:27:50.822Z,8.34
2023-03-26T22:30:20.763Z,8.33
2023-03-26T22:32:48.957Z,8.28
2023-03-26T22:35:16.645Z,8.25
2023-03-26T22:37:44.136Z,8.30
2023-03-26T22:40:16.197Z,8.24
2023-03-26T22:42:43.910Z,8.29
2023-03-26T22:45:15.216Z,8.27
2023-03-26T22:47:46.631Z,8.32
2023-03-26T22:50:14.766Z,8.29
2023-03-26T22:52:42.599Z,8.35
2023-03-26T22:55:11.641Z,8.35
2023-03-26T22:57:41.416Z,8.33
2023-03-26T23:00:19.703Z,8.35
2023-03-26T23:02:47.534Z,8.43
2023-03-26T23:05:19.842Z,8.42
2023-03-26T23:07:49.056Z,8.38
2023-03-26T23:10:16.553Z,8.44
2023-03-26T23:12:50.395Z,8.43
2023-03-26T23:15:20.593Z,8.45
2023-03-26T23:17:54.647Z,8.49
2023-03-26T23:20:22.555Z,8.47
2023-03-26T23:22:51.446Z,8.40
2023-03-26T23:25:20.093Z,8.38
2023-03-26T23:27:48.501Z,8.42
2023-03-26T23:30:16.750Z,8.44
2023-03-26T23:32:49.541Z,8.46
2023-03-26T23:35:17.334Z,8.44
2023-03-26T23:37:44.943Z,8.40
2023-03-26T23:40:13.910Z,8.35
2023-03-26T23:42:42.498Z,8.46
2023-03-26T23:45:13.114Z,8.48
2023-03-26T23:47:42.589Z,8.49
2023-03-26T23:50:13.385Z,8.53
2023-03-26T23:52:45.486Z,8.48
2023-03-26T23:55:13.111Z,8.43
2023-03-26T23:57:41.448Z,8.43
